Time;durP1;ratioP1;P1;durP2;ratioP2;P2;SDS_P1;SDS_P2;PMS_P1;PMS_P2;Temp;Humidity;BMP_temperature;BMP_pressure;BME280_temperature;BME280_humidity;BME280_pressure;Samples;Min_cycle;Max_cycle;Signal;HPM_P1;HPM_P2
2022/08/05 00:01:21;;;;;;;11.02;4.32;;;;;;;21.88;94.62;100291.53;8292934;28;20487;-49
2022/08/05 00:05:22;;;;;;;9.45;3.42;;;;;;;22.16;93.51;100289.25;8291883;28;20112;-49
2022/08/05 00:09:22;;;;;;;10.20;3.25;;;;;;;22.09;92.95;100307.72;8292821;28;20034;-50
2022/08/05 00:13:23;;;;;;;4.83;3.47;;;;;;;21.90;94.36;100316.09;8292693;28;20160;-52
2022/08/05 00:17:23;;;;;;;7.18;4.38;;;;;;;22.01;93.31;100319.00;8292575;28;20287;-50
2022/08/05 00:21:24;;;;;;;9.18;3.53;;;;;;;21.89;94.16;100312.47;8293045;28;20034;-49
2022/08/05 00:25:24;;;;;;;12.55;3.67;;;;;;;21.94;92.24;100309.91;8292389;28;20057;-49
2022/08/05 00:29:25;;;;;;;7.67;3.67;;;;;;;21.97;91.60;100314.13;8289192;28;20454;-49
2022/08/05 00:33:25;;;;;;;10.75;3.47;;;;;;;22.00;92.59;100292.53;8289113;28;20348;-51
2022/08/05 00:37:26;;;;;;;10.55;3.40;;;;;;;21.50;94.00;100290.56;8291325;28;20037;-49
2022/08/05 00:41:28;;;;;;;6.53;3.80;;;;;;;21.27;95.49;100279.22;8291949;28;20117;-48
2022/08/05 00:45:29;;;;;;;8.35;4.05;;;;;;;20.96;97.94;100273.56;8290118;28;20066;-51
2022/08/05 00:49:30;;;;;;;10.30;3.65;;;;;;;20.84;98.67;100272.50;8291994;28;20438;-49
2022/08/05 00:53:30;;;;;;;9.88;4.22;;;;;;;20.79;99.11;100283.25;8291249;28;20040;-49
2022/08/05 00:57:30;;;;;;;8.95;4.43;;;;;;;20.68;100.00;100289.41;8291299;28;20113;-49
2022/08/05 01:01:31;;;;;;;5.78;3.90;;;;;;;20.58;99.58;100297.22;8291925;28;20037;-50
2022/08/05 01:05:31;;;;;;;11.07;4.40;;;;;;;20.45;100.00;100308.19;8292930;28;20030;-49
2022/08/05 01:09:32;;;;;;;7.80;3.83;;;;;;;20.47;100.00;100298.72;8298401;28;20109;-48
2022/08/05 01:13:40;;;;;;;9.60;4.28;;;;;;;20.57;100.00;100304.63;8297753;28;20036;-49
2022/08/05 01:17:49;;;;;;;6.72;3.70;;;;;;;20.53;100.00;100303.38;8297793;28;20104;-48
2022/08/05 01:22:21;;;;;;;6.47;4.13;;;;;;;21.03;99.07;100288.16;8296318;28;20041;-49
2022/08/05 01:30:51;;;;;;;7.55;4.22;;;;;;;21.22;97.22;100314.75;8289267;28;20981;-48
2022/08/05 01:34:59;;;;;;;10.57;4.38;;;;;;;21.19;97.45;100331.69;8287607;28;20041;-49
2022/08/05 01:39:00;;;;;;;9.95;4.20;;;;;;;21.10;98.21;100346.72;8285538;28;20143;-51
2022/08/05 01:43:02;;;;;;;9.63;4.70;;;;;;;21.07;98.89;100348.00;8287150;28;20177;-48
2022/08/05 01:47:03;;;;;;;11.75;4.28;;;;;;;21.07;99.17;100341.63;8286261;28;20036;-48
2022/08/05 01:51:05;;;;;;;16.90;5.32;;;;;;;20.90;100.00;100334.88;8287638;28;20041;-53
2022/08/05 01:55:10;;;;;;;14.13;4.65;;;;;;;20.91;100.00;100339.28;8280606;28;20042;-50
2022/08/05 01:59:15;;;;;;;13.32;5.32;;;;;;;20.97;100.00;100371.47;8286837;28;20583;-50
2022/08/05 02:03:25;;;;;;;10.80;5.10;;;;;;;20.92;100.00;100393.22;8286325;28;20124;-48
2022/08/05 02:07:26;;;;;;;9.98;4.97;;;;;;;21.01;100.00;100411.22;8286642;28;20038;-49
2022/08/05 02:11:37;;;;;;;12.18;6.00;;;;;;;20.98;100.00;100426.22;8285328;28;20184;-49
2022/08/05 02:15:45;;;;;;;12.10;6.50;;;;;;;20.96;100.00;100436.63;8283202;28;20113;-50
2022/08/05 02:19:51;;;;;;;10.50;6.45;;;;;;;20.81;100.00;100444.16;8278571;28;20064;-50
2022/08/05 02:23:55;;;;;;;13.95;7.05;;;;;;;20.78;100.00;100457.47;8284629;28;20034;-52
2022/08/05 02:27:57;;;;;;;14.20;8.20;;;;;;;20.69;100.00;100486.19;8283942;28;20038;-48
2022/08/05 02:31:58;;;;;;;21.50;10.38;;;;;;;20.40;100.00;100500.25;8286154;28;20040;-49
2022/08/05 02:36:01;;;;;;;17.30;11.95;;;;;;;20.30;100.00;100461.31;8284695;28;20034;-50
2022/08/05 02:40:03;;;;;;;16.85;11.07;;;;;;;19.94;100.00;100362.72;8274938;28;20038;-50
2022/08/05 02:44:09;;;;;;;17.48;12.30;;;;;;;19.79;100.00;100270.63;8260717;28;20137;-51
2022/08/05 02:48:10;;;;;;;19.00;12.25;;;;;;;19.60;100.00;100265.94;8260421;28;20046;-50
2022/08/05 02:52:15;;;;;;;17.10;12.65;;;;;;;19.48;100.00;100267.56;8263464;28;20062;-52
2022/08/05 02:56:16;;;;;;;22.10;15.55;;;;;;;19.59;100.00;100346.50;8263181;28;20034;-49
2022/08/05 03:00:16;;;;;;;22.75;16.35;;;;;;;19.88;100.00;100401.13;8262941;28;20508;-49
2022/08/05 03:04:18;;;;;;;20.35;14.98;;;;;;;19.74;100.00;100421.28;8262064;28;20034;-48
2022/08/05 03:08:19;;;;;;;25.58;15.65;;;;;;;19.89;100.00;100430.25;8262862;28;20109;-50
2022/08/05 03:12:38;;;;;;;23.92;14.45;;;;;;;19.87;100.00;100432.34;8262676;28;20038;-52
2022/08/05 03:16:38;;;;;;;19.83;15.13;;;;;;;19.79;100.00;100447.06;8261452;28;20030;-48
2022/08/05 03:20:39;;;;;;;20.40;15.70;;;;;;;19.91;100.00;100447.38;8262624;28;20189;-50
2022/08/05 03:24:41;;;;;;;24.95;14.27;;;;;;;19.80;100.00;100431.44;8261191;28;20558;-51
2022/08/05 03:28:41;;;;;;;21.13;14.65;;;;;;;19.76;100.00;100417.28;8261436;28;20398;-50
2022/08/05 03:32:42;;;;;;;23.98;16.45;;;;;;;19.75;100.00;100401.03;8261402;28;20043;-48
2022/08/05 03:36:43;;;;;;;29.85;16.25;;;;;;;19.65;100.00;100395.06;8260776;28;20041;-50
2022/08/05 03:40:44;;;;;;;28.70;19.13;;;;;;;19.81;100.00;100405.69;8261378;28;20061;-51
2022/08/05 03:44:45;;;;;;;26.75;20.10;;;;;;;20.05;100.00;100408.78;8260663;28;20030;-48
2022/08/05 03:48:45;;;;;;;28.13;20.83;;;;;;;20.00;100.00;100394.00;8262210;28;20038;-49
2022/08/05 03:53:03;;;;;;;23.88;19.08;;;;;;;19.84;100.00;100388.84;8261188;28;20732;-48
2022/08/05 03:57:08;;;;;;;25.85;20.25;;;;;;;19.70;100.00;100354.16;8257703;28;20545;-52
2022/08/05 04:01:10;;;;;;;27.38;20.40;;;;;;;19.70;100.00;100332.22;8255725;28;20116;-49
2022/08/05 04:05:12;;;;;;;26.58;19.95;;;;;;;19.71;100.00;100328.41;8260321;28;20540;-48
2022/08/05 04:09:14;;;;;;;27.15;20.25;;;;;;;19.66;100.00;100319.94;8252774;28;20049;-52
2022/08/05 04:13:17;;;;;;;30.50;19.75;;;;;;;19.59;100.00;100264.22;8249544;28;20486;-51
2022/08/05 04:17:17;;;;;;;32.85;21.35;;;;;;;19.57;100.00;100264.41;8257987;28;20034;-48
2022/08/05 04:21:18;;;;;;;31.15;22.15;;;;;;;19.90;100.00;100317.53;8252902;28;20255;-51
2022/08/05 04:25:19;;;;;;;28.55;22.00;;;;;;;19.76;100.00;100303.97;8255743;28;20038;-51
2022/08/05 04:29:19;;;;;;;28.05;21.75;;;;;;;19.80;100.00;100349.13;8257041;28;20038;-48
2022/08/05 04:33:19;;;;;;;29.23;22.13;;;;;;;19.85;100.00;100368.59;8253836;28;20042;-48
2022/08/05 04:37:20;;;;;;;30.77;22.17;;;;;;;19.90;100.00;100371.56;8259745;28;20117;-50
2022/08/05 04:41:20;;;;;;;33.53;22.60;;;;;;;19.96;100.00;100384.47;8251051;28;20077;-50
2022/08/05 04:45:24;;;;;;;31.92;23.80;;;;;;;20.12;100.00;100389.59;8259040;28;20294;-50
2022/08/05 04:49:26;;;;;;;32.10;23.00;;;;;;;20.02;100.00;100358.94;8260434;28;20034;-51
2022/08/05 04:53:26;;;;;;;27.83;21.92;;;;;;;20.06;100.00;100346.53;8260204;28;20122;-49
2022/08/05 04:57:27;;;;;;;28.48;22.17;;;;;;;20.08;100.00;100352.63;8259938;28;20042;-49
2022/08/05 05:01:27;;;;;;;30.85;23.13;;;;;;;20.20;100.00;100372.97;8259328;28;20068;-49
2022/08/05 05:05:28;;;;;;;37.25;24.10;;;;;;;20.18;100.00;100380.56;8259224;28;20049;-53
2022/08/05 05:09:28;;;;;;;32.33;24.02;;;;;;;20.17;100.00;100370.66;8260020;28;20050;-50
2022/08/05 05:13:28;;;;;;;29.60;23.90;;;;;;;20.20;100.00;100378.47;8252402;28;20132;-53
2022/08/05 05:17:36;;;;;;;30.02;24.15;;;;;;;20.18;100.00;100366.84;8258099;28;20031;-52
2022/08/05 05:21:36;;;;;;;31.42;24.27;;;;;;;20.29;100.00;100372.59;8259140;28;20125;-51
2022/08/05 05:25:37;;;;;;;33.17;24.27;;;;;;;20.38;100.00;100378.75;8258140;28;20039;-51
2022/08/05 05:29:37;;;;;;;32.00;22.42;;;;;;;20.57;100.00;100397.16;8257680;28;20698;-51
2022/08/05 05:33:38;;;;;;;38.50;27.05;;;;;;;20.49;100.00;100394.63;8257124;28;20149;-51
2022/08/05 05:37:47;;;;;;;36.17;26.02;;;;;;;20.54;100.00;100397.59;8253716;28;20073;-52
2022/08/05 05:41:48;;;;;;;42.40;29.85;;;;;;;20.52;100.00;100399.72;8256661;28;20545;-51
2022/08/05 05:45:48;;;;;;;44.33;31.25;;;;;;;20.53;100.00;100406.88;8255573;28;20450;-50
2022/08/05 05:49:48;;;;;;;42.30;30.38;;;;;;;20.60;100.00;100403.09;8255464;28;20553;-51
2022/08/05 05:53:50;;;;;;;41.55;28.35;;;;;;;20.61;100.00;100414.91;8256788;28;20035;-50
2022/08/05 05:57:50;;;;;;;43.78;28.00;;;;;;;20.72;100.00;100401.44;8258701;28;20058;-51
2022/08/05 06:01:51;;;;;;;48.83;29.73;;;;;;;20.83;100.00;100413.72;8258536;28;20058;-50
2022/08/05 06:05:51;;;;;;;41.45;29.08;;;;;;;20.90;100.00;100420.06;8258005;28;20065;-50
2022/08/05 06:09:52;;;;;;;43.35;28.55;;;;;;;20.87;100.00;100404.00;8243003;28;20038;-51
2022/08/05 06:13:52;;;;;;;42.08;28.65;;;;;;;20.79;100.00;100412.44;8250068;28;20048;-52
2022/08/05 06:17:53;;;;;;;43.13;27.63;;;;;;;20.99;100.00;100424.34;8263531;28;20046;-50
2022/08/05 06:21:53;;;;;;;48.05;31.33;;;;;;;21.00;100.00;100426.03;8251830;28;20281;-51
2022/08/05 06:25:53;;;;;;;51.13;32.00;;;;;;;20.93;100.00;100430.66;8257650;28;20468;-51
2022/08/05 06:29:54;;;;;;;55.90;34.85;;;;;;;20.87;100.00;100431.47;8262437;28;20292;-52
2022/08/05 06:33:54;;;;;;;54.22;33.72;;;;;;;20.83;100.00;100431.03;8259356;28;20046;-52
2022/08/05 06:37:54;;;;;;;56.40;32.60;;;;;;;20.64;100.00;100425.50;8260904;28;20066;-50
2022/08/05 06:41:57;;;;;;;53.37;33.57;;;;;;;20.65;100.00;100429.97;8233129;28;20298;-50
2022/08/05 06:45:57;;;;;;;52.97;33.33;;;;;;;20.61;100.00;100436.91;8227873;28;20729;-50
2022/08/05 06:49:58;;;;;;;59.75;35.22;;;;;;;20.71;100.00;100442.88;8250482;28;20058;-51
2022/08/05 06:54:00;;;;;;;69.05;39.50;;;;;;;20.78;100.00;100446.47;8254412;28;20069;-51
2022/08/05 06:58:00;;;;;;;66.75;38.38;;;;;;;20.79;100.00;100450.91;8256731;28;20093;-53
2022/08/05 07:02:00;;;;;;;75.60;38.72;;;;;;;20.85;100.00;100455.56;8255413;28;20042;-50
2022/08/05 07:06:03;;;;;;;72.35;38.50;;;;;;;20.84;100.00;100464.88;8254940;28;20042;-51
2022/08/05 07:10:05;;;;;;;79.60;41.22;;;;;;;20.97;100.00;100475.94;8256947;28;20401;-50
2022/08/05 07:18:26;;;;;;;99.60;49.38;;;;;;;20.57;100.00;100496.06;8259951;28;20050;-53
2022/08/05 07:22:27;;;;;;;107.20;49.65;;;;;;;20.36;100.00;100498.94;8257729;28;20121;-50
2022/08/05 07:26:27;;;;;;;108.97;50.80;;;;;;;20.41;100.00;100507.41;8263674;28;20077;-51
2022/08/05 07:30:29;;;;;;;117.35;51.08;;;;;;;20.40;100.00;100503.00;8257892;28;20066;-52
2022/08/05 07:34:29;;;;;;;112.00;52.00;;;;;;;20.17;100.00;100507.91;8258322;28;20064;-51
2022/08/05 07:38:29;;;;;;;113.25;51.55;;;;;;;20.07;100.00;100515.66;8259721;28;20034;-51
2022/08/05 07:42:30;;;;;;;108.90;50.42;;;;;;;19.93;100.00;100525.69;8258696;28;20057;-49
2022/08/05 07:46:31;;;;;;;113.25;50.35;;;;;;;19.84;100.00;100526.03;8257382;28;20038;-51
2022/08/05 07:50:31;;;;;;;111.15;50.85;;;;;;;19.77;100.00;100536.13;8263558;28;20046;-53
2022/08/05 07:54:32;;;;;;;82.72;41.05;;;;;;;19.67;100.00;100535.63;8254737;28;20042;-51
2022/08/05 07:58:32;;;;;;;59.00;31.63;;;;;;;19.37;100.00;100552.22;8257183;28;20486;-54
2022/08/05 08:02:33;;;;;;;54.90;29.80;;;;;;;19.31;100.00;100553.00;8255430;28;20387;-53
2022/08/05 08:06:33;;;;;;;52.40;29.90;;;;;;;19.11;100.00;100568.38;8255905;28;20450;-52
2022/08/05 08:10:34;;;;;;;57.25;29.20;;;;;;;19.17;100.00;100578.56;8257038;28;20046;-50
2022/08/05 08:14:34;;;;;;;52.53;28.27;;;;;;;19.01;100.00;100573.34;8255790;28;20486;-52
2022/08/05 08:18:34;;;;;;;50.50;28.63;;;;;;;18.98;100.00;100581.94;8254816;28;20046;-51
2022/08/05 08:22:35;;;;;;;49.40;28.85;;;;;;;18.94;100.00;100588.81;8253735;28;20043;-53
2022/08/05 08:26:35;;;;;;;51.33;30.92;;;;;;;19.06;100.00;100590.03;8230738;28;20499;-51
2022/08/05 08:30:36;;;;;;;52.57;30.23;;;;;;;19.11;100.00;100604.00;8222654;28;20042;-52
2022/08/05 08:34:36;;;;;;;51.77;28.80;;;;;;;18.93;100.00;100602.72;8236302;28;20317;-49
2022/08/05 08:38:36;;;;;;;41.60;26.55;;;;;;;18.83;100.00;100602.19;8246366;28;20292;-50
2022/08/05 08:42:38;;;;;;;40.97;26.70;;;;;;;18.79;100.00;100612.66;8233713;28;20035;-54
2022/08/05 08:46:40;;;;;;;40.10;26.70;;;;;;;18.79;100.00;100607.19;8249629;28;20082;-50
2022/08/05 08:50:43;;;;;;;43.70;27.10;;;;;;;18.78;100.00;100626.56;8244762;28;20038;-50
2022/08/05 08:54:43;;;;;;;39.28;25.33;;;;;;;18.77;100.00;100633.09;8241796;28;20070;-51
2022/08/05 08:58:44;;;;;;;39.22;25.60;;;;;;;18.78;100.00;100632.88;8240001;28;20038;-51
2022/08/05 09:02:45;;;;;;;37.58;24.88;;;;;;;18.73;100.00;100640.81;8245539;28;20056;-50
2022/08/05 09:06:45;;;;;;;35.47;24.33;;;;;;;18.79;100.00;100639.22;8246223;28;20097;-52
2022/08/05 09:10:46;;;;;;;36.33;25.30;;;;;;;18.75;100.00;100649.72;8228933;28;20047;-50
2022/08/05 09:14:47;;;;;;;35.40;24.60;;;;;;;18.60;100.00;100656.25;8242077;28;20716;-53
2022/08/05 09:18:47;;;;;;;35.65;24.55;;;;;;;18.44;100.00;100662.75;8248666;28;20124;-52
2022/08/05 09:23:12;;;;;;;45.60;29.23;;;;;;;18.49;100.00;100660.31;8256824;28;20088;-49
2022/08/05 09:27:31;;;;;;;44.58;28.30;;;;;;;18.54;100.00;100663.31;8250471;28;20383;-53
2022/08/05 09:31:33;;;;;;;43.15;27.00;;;;;;;18.63;100.00;100662.19;8251067;28;20038;-51
2022/08/05 09:35:33;;;;;;;44.78;26.27;;;;;;;18.69;100.00;100661.41;8249617;28;20038;-50
2022/08/05 09:39:37;;;;;;;38.35;23.85;;;;;;;18.75;100.00;100671.63;8252237;28;20031;-50
2022/08/05 09:43:38;;;;;;;35.53;22.77;;;;;;;18.62;100.00;100678.78;8252843;28;20517;-50
2022/08/05 09:47:41;;;;;;;38.45;24.90;;;;;;;18.53;100.00;100678.03;8250653;28;20031;-51
2022/08/05 09:51:41;;;;;;;35.38;26.27;;;;;;;18.59;100.00;100688.25;8253259;28;25310;-50
2022/08/05 09:55:42;;;;;;;36.45;25.48;;;;;;;18.71;100.00;100694.97;8256182;28;20048;-50
2022/08/05 09:59:46;;;;;;;39.53;27.75;;;;;;;18.89;100.00;100709.13;8258816;28;20038;-53
2022/08/05 10:03:58;;;;;;;;;;;;;;;18.89;100.00;100716.50;8248277;28;20505;-52
2022/08/05 10:08:02;;;;;;;36.33;23.95;;;;;;;18.72;100.00;100724.03;8240591;28;19922;-51
2022/08/05 10:12:09;;;;;;;34.00;25.63;;;;;;;19.18;100.00;100719.19;8241491;28;20437;-50
2022/08/05 10:16:31;;;;;;;29.98;22.55;;;;;;;19.05;100.00;100728.13;8241057;28;20647;-50
2022/08/05 10:20:34;;;;;;;27.05;21.75;;;;;;;19.24;100.00;100715.69;8223654;28;20517;-50
2022/08/05 10:24:36;;;;;;;22.42;17.48;;;;;;;19.64;100.00;100728.88;8221468;28;20161;-54
2022/08/05 10:28:36;;;;;;;18.35;12.35;;;;;;;19.93;100.00;100733.41;8245227;28;20035;-50
2022/08/05 10:32:38;;;;;;;17.05;11.50;;;;;;;20.16;100.00;100747.84;8244825;28;20034;-53
2022/08/05 10:36:40;;;;;;;15.80;9.60;;;;;;;20.23;100.00;100748.75;8249041;28;20402;-53
2022/08/05 10:44:59;;;;;;;14.60;8.38;;;;;;;20.76;100.00;100770.09;8311864;27;20381;-49
2022/08/05 10:49:06;;;;;;;19.17;8.65;;;;;;;20.53;100.00;100783.25;8346499;28;20072;-51
2022/08/05 10:53:46;;;;;;;14.52;9.00;;;;;;;20.81;100.00;100784.09;8344324;28;20033;-51
2022/08/05 10:57:46;;;;;;;14.10;9.25;;;;;;;20.86;100.00;100789.88;8318150;28;20075;-50
2022/08/05 11:01:47;;;;;;;20.20;11.77;;;;;;;21.17;100.00;100796.66;8346017;28;20037;-50
2022/08/05 11:06:08;;;;;;;15.90;10.02;;;;;;;20.94;98.13;100806.19;8344636;28;20029;-50
2022/08/05 11:10:21;;;;;;;18.90;9.75;;;;;;;21.11;98.08;100807.63;8342785;28;20049;-49
2022/08/05 11:14:30;;;;;;;14.77;8.40;;;;;;;22.06;100.00;100806.63;8341741;28;20037;-53
2022/08/05 11:18:32;;;;;;;9.40;7.50;;;;;;;21.75;93.97;100811.81;8346049;28;20044;-51
2022/08/05 11:22:51;;;;;;;10.98;5.82;;;;;;;22.11;88.48;100815.09;8342080;28;20083;-51
2022/08/05 11:27:31;;;;;;;10.88;5.75;;;;;;;23.30;91.85;100814.13;8333760;28;20049;-51
2022/08/05 11:31:31;;;;;;;11.38;5.32;;;;;;;24.42;82.93;100816.19;8336541;28;20040;-52
2022/08/05 11:35:56;;;;;;;9.82;4.38;;;;;;;23.97;78.32;100815.38;8305339;28;20057;-49
2022/08/05 11:39:56;;;;;;;9.63;5.30;;;;;;;23.08;81.97;100817.09;8332529;28;20033;-50
2022/08/05 11:44:15;;;;;;;9.18;6.38;;;;;;;24.24;77.40;100819.72;8338879;28;20034;-52
2022/08/05 11:48:16;;;;;;;9.95;6.45;;;;;;;26.30;69.04;100816.16;8338028;28;20098;-48
2022/08/05 11:52:31;;;;;;;5.53;2.97;;;;;;;26.42;64.47;100825.38;8340416;28;20037;-50
2022/08/05 11:56:49;;;;;;;4.85;3.38;;;;;;;24.88;68.66;100827.78;8317861;28;20514;-51
2022/08/05 12:01:00;;;;;;;8.88;5.00;;;;;;;24.73;70.19;100824.53;8314104;28;20152;-52
2022/08/05 12:05:01;;;;;;;4.55;4.15;;;;;;;24.98;68.31;100822.59;8301497;28;20045;-50
2022/08/05 12:09:03;;;;;;;5.50;3.45;;;;;;;24.79;69.80;100821.69;8318618;28;20083;-50
2022/08/05 12:13:03;;;;;;;5.57;3.45;;;;;;;24.26;71.02;100819.50;8283286;28;20358;-50
2022/08/05 12:17:13;;;;;;;10.25;4.30;;;;;;;23.40;73.24;100822.81;8285992;28;20042;-52
2022/08/05 12:21:17;;;;;;;8.57;4.38;;;;;;;23.46;75.65;100824.69;8285138;28;20300;-52
2022/08/05 12:25:18;;;;;;;7.30;4.85;;;;;;;23.28;74.69;100828.16;8286595;28;20045;-49
2022/08/05 12:29:23;;;;;;;8.77;5.45;;;;;;;23.30;73.46;100830.69;8280545;28;20044;-49
2022/08/05 12:33:25;;;;;;;8.90;4.90;;;;;;;23.90;72.12;100833.03;8283565;28;20030;-51
2022/08/05 12:37:25;;;;;;;9.77;5.90;;;;;;;24.57;70.40;100833.31;8285204;28;20034;-50
2022/08/05 12:41:30;;;;;;;13.75;6.78;;;;;;;23.99;69.77;100826.22;8284693;28;20532;-50
2022/08/05 12:45:31;;;;;;;11.27;6.25;;;;;;;23.64;71.68;100838.66;8285607;28;20041;-52
2022/08/05 12:49:48;;;;;;;6.22;4.70;;;;;;;23.41;71.25;100838.28;8284924;28;20071;-50
2022/08/05 12:53:48;;;;;;;6.72;4.70;;;;;;;24.10;70.69;100839.34;8284964;28;20034;-48
2022/08/05 12:57:51;;;;;;;8.93;4.90;;;;;;;24.33;69.59;100839.63;8283287;28;20081;-49
2022/08/05 13:01:55;;;;;;;8.10;5.25;;;;;;;24.86;72.83;100838.25;8273419;28;20280;-49
2022/08/05 13:05:57;;;;;;;9.75;4.50;;;;;;;25.02;68.90;100845.97;8302229;28;20061;-53
2022/08/05 13:09:58;;;;;;;6.75;3.83;;;;;;;24.90;68.83;100864.38;8295468;28;20373;-52
2022/08/05 13:13:58;;;;;;;6.40;4.07;;;;;;;24.53;69.17;100868.03;8309926;28;20147;-52
2022/08/05 13:17:59;;;;;;;9.73;4.60;;;;;;;24.31;70.61;100869.44;8271483;28;20380;-52
2022/08/05 13:21:59;;;;;;;5.68;3.05;;;;;;;24.22;69.49;100868.00;8294971;28;20631;-51
2022/08/05 13:26:02;;;;;;;4.87;2.53;;;;;;;24.77;69.15;100870.00;8313142;28;20413;-50
2022/08/05 13:30:05;;;;;;;7.95;2.58;;;;;;;24.57;68.27;100881.19;8307236;28;20284;-51
2022/08/05 13:34:06;;;;;;;6.10;2.93;;;;;;;24.39;69.42;100883.84;8292966;28;20034;-51
2022/08/05 13:38:06;;;;;;;5.00;2.58;;;;;;;24.49;66.39;100886.13;8282024;28;20033;-50
2022/08/05 13:42:08;;;;;;;6.60;2.43;;;;;;;24.62;66.65;100883.28;8278076;28;20046;-53
2022/08/05 13:46:10;;;;;;;4.63;1.98;;;;;;;24.51;65.75;100881.22;8282389;28;20324;-50
2022/08/05 13:50:10;;;;;;;7.88;2.50;;;;;;;24.15;65.50;100892.88;8281523;28;20046;-49
2022/08/05 13:54:11;;;;;;;4.85;2.20;;;;;;;24.01;66.70;100882.13;8281092;28;20038;-50
2022/08/05 13:58:11;;;;;;;4.82;2.00;;;;;;;24.14;66.38;100882.03;8273019;28;20542;-50
2022/08/05 14:02:13;;;;;;;6.10;2.33;;;;;;;24.39;68.19;100885.75;8297614;28;20367;-53
2022/08/05 14:06:13;;;;;;;2.80;1.75;;;;;;;23.78;68.12;100890.03;8314883;28;20053;-53
2022/08/05 14:10:16;;;;;;;6.35;1.52;;;;;;;23.84;68.38;100901.06;8316268;28;20077;-53
2022/08/05 14:14:17;;;;;;;6.90;1.55;;;;;;;23.80;69.48;100899.78;8314395;28;20043;-53
2022/08/05 14:18:17;;;;;;;8.07;2.10;;;;;;;23.68;71.31;100911.72;8315601;28;20041;-50
2022/08/05 14:22:18;;;;;;;5.40;2.70;;;;;;;23.59;71.70;100913.00;8312441;28;20485;-49
2022/08/05 14:26:18;;;;;;;4.72;2.00;;;;;;;23.71;68.46;100923.19;8299304;28;20037;-50
2022/08/05 14:30:19;;;;;;;2.90;0.90;;;;;;;23.64;62.86;100922.38;8293786;28;20033;-53
2022/08/05 14:34:19;;;;;;;5.38;1.30;;;;;;;23.61;61.60;100921.94;8296273;28;20264;-51
2022/08/05 14:38:20;;;;;;;5.37;1.40;;;;;;;23.52;61.25;100923.22;8296092;28;20069;-49
2022/08/05 14:42:21;;;;;;;5.47;1.05;;;;;;;23.46;62.06;100921.31;8297529;28;20337;-52
2022/08/05 14:46:23;;;;;;;3.95;1.30;;;;;;;23.36;62.65;100924.50;8297655;28;20037;-50
2022/08/05 14:50:23;;;;;;;3.53;0.95;;;;;;;23.45;63.10;100919.63;8298094;28;20049;-51
2022/08/05 14:54:23;;;;;;;3.43;1.20;;;;;;;23.38;63.69;100922.38;8297709;28;20048;-51
2022/08/05 14:58:24;;;;;;;4.30;1.52;;;;;;;23.28;64.15;100937.66;8295372;28;20292;-49
2022/08/05 15:02:24;;;;;;;2.67;1.35;;;;;;;23.31;64.78;100926.22;8295594;28;20053;-49
2022/08/05 15:06:25;;;;;;;5.55;1.75;;;;;;;23.23;65.98;100929.16;8282365;28;20045;-51
2022/08/05 15:10:25;;;;;;;4.05;1.67;;;;;;;23.10;66.25;100928.09;8286396;28;20037;-53
2022/08/05 15:14:25;;;;;;;5.72;3.63;;;;;;;23.27;67.25;100930.47;8308033;28;20030;-50
2022/08/05 15:18:26;;;;;;;7.73;4.00;;;;;;;23.38;67.54;100932.56;8310093;28;20428;-50
2022/08/05 15:22:26;;;;;;;7.88;2.92;;;;;;;23.41;66.42;100929.38;8297344;28;20341;-51
2022/08/05 15:26:27;;;;;;;7.20;3.65;;;;;;;23.35;66.47;100933.84;8303864;28;20068;-50
2022/08/05 15:30:30;;;;;;;4.53;2.85;;;;;;;23.37;67.39;100936.41;8312729;28;20029;-51
2022/08/05 15:34:31;;;;;;;6.43;2.93;;;;;;;23.40;68.09;100936.84;8313869;28;20041;-50
2022/08/05 15:38:32;;;;;;;5.68;3.10;;;;;;;23.29;68.61;100940.22;8316272;28;20036;-49
2022/08/05 15:42:32;;;;;;;7.28;3.92;;;;;;;23.31;68.98;100942.75;8315190;28;20053;-51
2022/08/05 15:46:33;;;;;;;5.55;2.75;;;;;;;23.46;68.61;100940.63;8316139;28;20494;-51
2022/08/05 15:50:33;;;;;;;5.93;2.03;;;;;;;23.76;67.90;100937.22;8308994;28;20536;-49
2022/08/05 15:54:34;;;;;;;7.28;3.70;;;;;;;23.87;67.33;100936.53;8315948;28;20034;-49
2022/08/05 15:58:34;;;;;;;3.47;2.60;;;;;;;23.59;67.28;100952.50;8312295;28;20388;-49
2022/08/05 16:02:36;;;;;;;5.38;3.40;;;;;;;23.49;68.71;100945.72;8306266;28;20506;-50
2022/08/05 16:06:36;;;;;;;5.38;3.05;;;;;;;23.38;69.31;100949.97;8316881;28;20044;-50
2022/08/05 16:10:37;;;;;;;10.35;3.38;;;;;;;23.40;68.65;100955.28;8318744;28;20057;-49
2022/08/05 16:14:37;;;;;;;6.13;2.85;;;;;;;23.44;69.15;100951.03;8309287;28;20064;-51
2022/08/05 16:18:38;;;;;;;4.88;2.75;;;;;;;23.59;69.10;100951.66;8314663;28;20142;-50
2022/08/05 16:22:38;;;;;;;7.00;2.40;;;;;;;23.38;68.40;100955.50;8318403;28;20041;-49
2022/08/05 16:27:00;;;;;;;3.80;1.52;;;;;;;23.41;66.27;100956.97;8318378;28;20505;-49
2022/08/05 16:31:00;;;;;;;4.00;1.15;;;;;;;23.45;65.45;100956.34;8313260;28;20046;-49
2022/08/05 16:35:01;;;;;;;5.20;0.90;;;;;;;23.42;63.38;100964.22;8318354;28;20069;-49
2022/08/05 16:39:02;;;;;;;7.35;0.88;;;;;;;23.41;62.17;100963.34;8314645;28;20037;-48
2022/08/05 16:43:02;;;;;;;2.40;0.80;;;;;;;23.43;61.39;100971.44;8313487;28;20504;-49
2022/08/05 16:47:03;;;;;;;1.63;0.47;;;;;;;23.46;60.56;100982.03;8312811;28;20150;-49
2022/08/05 16:51:03;;;;;;;3.75;0.70;;;;;;;23.40;59.00;100985.66;8306292;28;20044;-49
2022/08/05 16:55:04;;;;;;;3.35;0.70;;;;;;;23.40;57.58;100999.44;8315013;28;20057;-49
2022/08/05 16:59:08;;;;;;;3.10;0.70;;;;;;;23.30;57.76;100991.63;8312795;28;20079;-52
2022/08/05 17:03:08;;;;;;;1.63;0.52;;;;;;;23.28;58.00;100992.88;8304455;28;20037;-51
2022/08/05 17:07:08;;;;;;;2.20;0.57;;;;;;;23.14;57.67;101006.63;8315316;28;20069;-50
2022/08/05 17:11:09;;;;;;;1.42;0.43;;;;;;;23.10;57.75;101002.59;8313485;28;20052;-50
2022/08/05 17:15:10;;;;;;;3.33;0.47;;;;;;;23.05;57.90;101007.88;8307333;28;20037;-50
2022/08/05 17:19:10;;;;;;;2.17;0.40;;;;;;;22.98;57.64;101009.78;8307810;28;20605;-50
2022/08/05 17:23:11;;;;;;;2.17;0.52;;;;;;;22.98;58.01;101015.28;8311921;28;20030;-49
2022/08/05 17:27:11;;;;;;;1.70;0.50;;;;;;;22.97;56.90;101015.50;8318198;28;20071;-50
2022/08/05 17:31:11;;;;;;;1.65;0.60;;;;;;;22.96;57.17;101033.94;8319041;28;20098;-49
2022/08/05 17:35:12;;;;;;;2.85;0.60;;;;;;;22.95;56.70;101020.38;8315084;28;20044;-51
2022/08/05 17:39:12;;;;;;;2.72;0.70;;;;;;;23.00;56.61;101035.22;8317920;28;20041;-52
2022/08/05 17:43:13;;;;;;;1.53;0.47;;;;;;;22.95;56.72;101021.22;8308329;28;20049;-52
2022/08/05 17:47:13;;;;;;;3.28;0.68;;;;;;;22.95;57.48;101032.25;8312916;28;20280;-51
2022/08/05 17:51:14;;;;;;;3.97;0.52;;;;;;;22.91;57.18;101033.72;8308873;28;20042;-49
2022/08/05 17:55:14;;;;;;;3.33;0.50;;;;;;;22.94;55.11;101033.28;8280458;28;20064;-49
2022/08/05 17:59:16;;;;;;;3.30;0.57;;;;;;;22.96;54.65;101050.50;8286362;28;20276;-52
2022/08/05 18:03:18;;;;;;;2.80;0.80;;;;;;;22.93;54.44;101055.56;8318412;28;20040;-50
2022/08/05 18:07:18;;;;;;;1.33;0.50;;;;;;;22.80;53.92;101059.16;8293952;28;20128;-50
2022/08/05 18:11:20;;;;;;;2.25;0.40;;;;;;;22.64;53.69;101051.25;8284931;28;20042;-52
2022/08/05 18:15:21;;;;;;;2.92;0.50;;;;;;;22.49;54.64;101066.19;8284671;28;20034;-53
2022/08/05 18:19:21;;;;;;;3.10;0.40;;;;;;;22.34;55.23;101077.34;8284971;28;20045;-54
2022/08/05 18:23:21;;;;;;;2.45;0.40;;;;;;;22.20;55.28;101085.75;8279005;28;20029;-50
2022/08/05 18:27:22;;;;;;;1.73;0.40;;;;;;;22.09;55.73;101095.41;8317087;28;20042;-50
2022/08/05 18:31:23;;;;;;;2.75;0.40;;;;;;;22.04;55.19;101099.81;8311241;28;20029;-49
2022/08/05 18:35:23;;;;;;;1.13;0.40;;;;;;;22.00;55.45;101099.38;8307665;28;20495;-52
2022/08/05 18:39:23;;;;;;;1.85;0.35;;;;;;;21.90;56.04;101101.63;8280659;28;20038;-53
2022/08/05 18:43:24;;;;;;;3.13;0.87;;;;;;;21.78;56.13;101103.22;8284902;28;20037;-50